createdAt,value
2018-06-29T04:12:55.745Z,21.40
2018-06-29T04:15:28.430Z,22.30
2018-06-29T04:18:00.823Z,22.70
2018-06-29T04:20:33.249Z,23.20
2018-06-29T04:23:05.905Z,23.30
2018-06-29T04:25:38.630Z,23.20
2018-06-29T04:28:11.042Z,23.20
2018-06-29T04:30:43.761Z,23.30
2018-06-29T04:33:16.161Z,23.20
2018-06-29T04:35:48.570Z,23.00
2018-06-29T04:38:20.948Z,22.40
2018-06-29T04:40:53.357Z,22.20
2018-06-29T04:43:25.745Z,22.00
2018-06-29T04:45:58.403Z,22.10
2018-06-29T04:48:30.812Z,22.70
2018-06-29T04:51:03.209Z,23.40
2018-06-29T04:53:35.605Z,24.10
2018-06-29T04:56:08.013Z,24.80
2018-06-29T04:58:40.738Z,25.50
2018-06-29T05:01:13.154Z,25.80
2018-06-29T05:03:45.542Z,25.80
2018-06-29T05:06:17.946Z,26.20
2018-06-29T05:08:50.629Z,26.30
2018-06-29T05:11:23.033Z,26.40
2018-06-29T05:13:55.429Z,26.20
2018-06-29T05:16:27.829Z,26.10
2018-06-29T05:19:00.218Z,26.60
2018-06-29T05:21:32.635Z,27.20
2018-06-29T05:26:37.288Z,27.30
2018-06-29T05:29:10.274Z,27.60
2018-06-29T05:34:15.125Z,27.20
2018-06-29T05:36:47.606Z,27.10
2018-06-29T05:39:20.001Z,27.00
2018-06-29T05:41:52.406Z,27.40
2018-06-29T05:44:25.214Z,27.80
2018-06-29T05:46:57.712Z,28.60
2018-06-29T05:49:30.239Z,28.70
2018-06-29T05:52:02.660Z,29.20
2018-06-29T05:54:35.058Z,28.70
2018-06-29T05:57:07.774Z,28.20
2018-06-29T05:59:40.189Z,28.80
2018-06-29T06:02:12.565Z,29.90
2018-06-29T06:04:45.150Z,30.10
2018-06-29T06:07:17.523Z,30.90
2018-06-29T06:09:49.941Z,31.40
2018-06-29T06:12:22.355Z,31.80
2018-06-29T06:14:54.973Z,31.00
2018-06-29T06:17:27.388Z,30.00
2018-06-29T06:20:07.602Z,29.70
2018-06-29T06:22:40.282Z,28.90
2018-06-29T06:25:12.686Z,28.90
2018-06-29T06:27:45.372Z,28.50
2018-06-29T06:30:17.768Z,29.10
2018-06-29T06:32:50.169Z,29.20
2018-06-29T06:35:22.857Z,29.10
2018-06-29T06:37:55.262Z,29.20
2018-06-29T06:40:27.657Z,29.20
2018-06-29T06:43:00.055Z,29.10
2018-06-29T06:45:33.814Z,30.20
2018-06-29T06:48:06.558Z,29.80
2018-06-29T06:50:38.937Z,30.20
2018-06-29T06:53:11.328Z,30.80
2018-06-29T06:55:44.018Z,30.60
2018-06-29T06:58:16.491Z,30.10
2018-06-29T07:00:48.889Z,30.60
2018-06-29T07:03:21.621Z,31.60
2018-06-29T07:05:54.005Z,32.00
2018-06-29T07:08:26.414Z,32.60
2018-06-29T07:10:58.809Z,32.90
2018-06-29T07:13:31.336Z,32.30
2018-06-29T07:16:03.761Z,32.30
2018-06-29T07:18:36.161Z,31.90
2018-06-29T07:21:08.863Z,31.50
2018-06-29T07:23:41.537Z,31.50
2018-06-29T07:26:14.217Z,30.70
2018-06-29T07:28:46.626Z,31.50
2018-06-29T07:31:19.272Z,31.70
2018-06-29T07:33:51.945Z,31.70
2018-06-29T07:36:24.585Z,31.20
2018-06-29T07:38:57.270Z,30.70
2018-06-29T07:41:29.984Z,30.30
2018-06-29T07:44:02.450Z,30.10
2018-06-29T07:49:07.141Z,30.30
2018-06-29T07:51:39.841Z,29.60
2018-06-29T07:54:12.243Z,29.90
2018-06-29T07:56:44.930Z,29.70
2018-06-29T07:59:17.314Z,29.30
2018-06-29T08:01:49.694Z,29.30
2018-06-29T08:04:22.350Z,29.40
2018-06-29T08:06:55.029Z,29.80
2018-06-29T08:09:27.694Z,29.80
2018-06-29T08:12:00.082Z,29.60
2018-06-29T08:14:32.756Z,29.20
2018-06-29T08:17:05.153Z,29.20
2018-06-29T08:19:37.553Z,29.60
2018-06-29T08:22:09.945Z,29.50
2018-06-29T08:24:53.646Z,29.70
2018-06-29T08:27:26.031Z,29.80
2018-06-29T08:29:58.417Z,29.80
2018-06-29T08:32:30.794Z,30.10
2018-06-29T08:35:03.223Z,30.20
2018-06-29T08:37:35.669Z,29.80
2018-06-29T08:40:08.289Z,29.90
2018-06-29T08:42:40.671Z,30.50
2018-06-29T08:45:13.049Z,30.70
2018-06-29T08:47:45.726Z,31.00
2018-06-29T08:50:18.134Z,31.30
2018-06-29T08:52:50.522Z,30.90
2018-06-29T08:55:23.157Z,30.70
2018-06-29T08:57:55.563Z,30.30
2018-06-29T09:00:28.249Z,30.30
2018-06-29T09:03:01.006Z,30.50
2018-06-29T09:05:33.715Z,30.00
2018-06-29T09:08:06.483Z,30.20
2018-06-29T09:10:39.175Z,30.20
2018-06-29T09:13:11.817Z,30.10
2018-06-29T09:15:44.481Z,30.10
2018-06-29T09:18:17.145Z,30.20
2018-06-29T09:20:49.537Z,30.90
2018-06-29T09:23:21.962Z,31.30
2018-06-29T09:25:54.353Z,31.80
2018-06-29T09:28:26.746Z,31.40
2018-06-29T09:30:59.146Z,31.50
2018-06-29T09:33:31.846Z,31.50
2018-06-29T09:36:04.250Z,31.20
2018-06-29T09:38:36.669Z,31.00
2018-06-29T09:41:09.164Z,31.00
2018-06-29T09:43:41.553Z,30.90
2018-06-29T09:46:13.930Z,30.70
2018-06-29T09:48:46.638Z,30.90
2018-06-29T09:51:19.022Z,30.90
2018-06-29T09:53:51.457Z,30.60
2018-06-29T09:56:23.846Z,30.60
2018-06-29T09:58:56.259Z,30.80
2018-06-29T10:01:28.774Z,30.70
2018-06-29T10:04:01.041Z,30.90
2018-06-29T10:06:33.720Z,30.90
2018-06-29T10:09:07.592Z,31.00
2018-06-29T10:11:40.224Z,31.10
2018-06-29T10:14:12.654Z,31.00
2018-06-29T10:16:45.297Z,31.00
2018-06-29T10:19:17.728Z,31.10
2018-06-29T10:21:50.389Z,31.50
2018-06-29T10:24:22.833Z,31.40
2018-06-29T10:26:55.163Z,31.70
2018-06-29T10:29:27.561Z,31.40
2018-06-29T10:31:59.946Z,31.10
2018-06-29T10:34:32.346Z,30.90
2018-06-29T10:37:04.737Z,31.00
2018-06-29T10:39:37.138Z,31.00
2018-06-29T10:42:09.517Z,31.10
2018-06-29T10:44:41.941Z,30.90
2018-06-29T10:47:14.296Z,31.20
2018-06-29T10:49:46.780Z,30.90
2018-06-29T10:52:19.157Z,30.90
2018-06-29T10:54:51.808Z,31.00
2018-06-29T10:57:24.225Z,31.40
2018-06-29T10:59:56.626Z,31.40
2018-06-29T11:02:29.014Z,31.40
2018-06-29T11:05:01.418Z,31.50
2018-06-29T11:07:33.806Z,31.60
2018-06-29T11:10:06.470Z,31.60
2018-06-29T11:12:38.857Z,31.50
2018-06-29T11:15:11.256Z,31.70
2018-06-29T11:17:43.969Z,31.60
2018-06-29T11:20:16.452Z,31.50
2018-06-29T11:22:49.134Z,31.80
2018-06-29T11:25:21.556Z,31.90
2018-06-29T11:27:54.506Z,32.00
2018-06-29T11:30:26.936Z,32.10
2018-06-29T11:32:59.325Z,32.20
2018-06-29T11:35:31.713Z,32.30
2018-06-29T11:38:04.107Z,32.30
2018-06-29T11:40:36.778Z,32.30
2018-06-29T11:43:09.412Z,32.30
2018-06-29T11:45:41.838Z,31.80
2018-06-29T11:48:14.209Z,31.30
2018-06-29T11:50:47.287Z,30.80
2018-06-29T11:53:19.662Z,30.20
2018-06-29T11:55:52.072Z,29.70
2018-06-29T11:58:24.471Z,29.40
2018-06-29T12:00:56.869Z,29.20
2018-06-29T12:03:29.759Z,28.90
2018-06-29T12:06:02.416Z,28.70
2018-06-29T12:08:34.801Z,28.70
2018-06-29T12:11:07.205Z,28.60
2018-06-29T12:13:39.593Z,28.60
2018-06-29T12:16:11.993Z,28.50
2018-06-29T12:18:44.381Z,28.30
2018-06-29T12:21:16.789Z,28.30
2018-06-29T12:23:49.186Z,28.30
2018-06-29T12:26:21.589Z,28.30
2018-06-29T12:28:53.994Z,28.20
2018-06-29T12:31:26.664Z,28.20
2018-06-29T12:33:59.070Z,28.10
2018-06-29T12:36:31.713Z,28.10
2018-06-29T12:39:06.088Z,28.10
2018-06-29T12:41:38.484Z,28.10
2018-06-29T12:44:10.891Z,28.10
2018-06-29T12:46:43.284Z,28.10
2018-06-29T12:49:15.993Z,28.10
2018-06-29T12:51:48.403Z,28.00
2018-06-29T12:54:20.875Z,28.00
2018-06-29T12:56:53.303Z,28.10
2018-06-29T12:59:25.689Z,28.10
2018-06-29T13:01:58.096Z,28.10
2018-06-29T13:04:30.726Z,28.20
2018-06-29T13:07:03.145Z,28.20
2018-06-29T13:09:35.778Z,28.20
2018-06-29T13:12:08.204Z,28.10
2018-06-29T13:14:40.588Z,28.10
2018-06-29T13:17:13.311Z,28.10
2018-06-29T13:19:45.696Z,28.00
2018-06-29T13:22:18.350Z,28.10
2018-06-29T13:24:50.984Z,27.90
2018-06-29T13:27:23.390Z,27.90
2018-06-29T13:29:55.774Z,28.00
2018-06-29T13:32:28.181Z,28.00
2018-06-29T13:35:00.562Z,28.10
2018-06-29T13:37:32.972Z,28.10
2018-06-29T13:40:05.418Z,28.10
2018-06-29T13:42:37.829Z,28.00
2018-06-29T13:45:10.217Z,28.00
2018-06-29T13:47:42.618Z,28.10
2018-06-29T13:50:15.039Z,28.10
2018-06-29T13:52:47.758Z,28.10
2018-06-29T13:55:20.140Z,28.10
2018-06-29T13:57:52.830Z,28.20
2018-06-29T14:00:25.506Z,28.20
2018-06-29T14:02:58.145Z,28.20
2018-06-29T14:05:30.883Z,28.10
2018-06-29T14:08:03.294Z,28.10
2018-06-29T14:10:35.914Z,28.10
2018-06-29T14:13:08.334Z,28.20
2018-06-29T14:15:40.725Z,28.20
2018-06-29T14:18:13.413Z,28.30
2018-06-29T14:20:45.806Z,28.20
2018-06-29T14:23:18.493Z,28.20
2018-06-29T14:25:50.897Z,28.20
2018-06-29T14:28:23.319Z,28.20
2018-06-29T14:30:55.710Z,28.20
2018-06-29T14:33:28.337Z,28.20
2018-06-29T14:36:00.721Z,28.10
2018-06-29T14:38:33.135Z,28.10
2018-06-29T14:41:05.525Z,28.10
2018-06-29T14:43:37.938Z,28.10
2018-06-29T14:46:10.653Z,28.10
2018-06-29T14:48:43.075Z,28.10
2018-06-29T14:51:15.466Z,28.20
2018-06-29T14:53:47.887Z,28.20
2018-06-29T14:56:20.281Z,28.20
2018-06-29T14:58:52.692Z,28.20
2018-06-29T15:01:25.081Z,28.20
2018-06-29T15:03:57.486Z,28.10
2018-06-29T15:06:30.449Z,28.20
2018-06-29T15:09:04.866Z,28.20
2018-06-29T15:11:37.514Z,28.20
2018-06-29T15:14:09.916Z,28.30
2018-06-29T15:16:42.598Z,28.40
2018-06-29T15:19:15.256Z,28.40
2018-06-29T15:24:20.233Z,28.40
2018-06-29T15:26:52.629Z,28.50
2018-06-29T15:29:25.273Z,28.40
2018-06-29T15:31:57.657Z,28.40
2018-06-29T15:34:30.062Z,28.50
2018-06-29T15:37:02.813Z,28.40
2018-06-29T15:39:35.652Z,28.30
2018-06-29T15:42:08.392Z,28.30
2018-06-29T15:44:41.115Z,28.30
2018-06-29T15:47:13.890Z,28.30
2018-06-29T15:52:19.147Z,28.30
2018-06-29T15:54:51.886Z,28.30
2018-06-29T15:57:24.642Z,28.30
2018-06-29T15:59:57.261Z,28.30
2018-06-29T16:02:29.669Z,28.30
2018-06-29T16:05:02.064Z,28.30
2018-06-29T16:07:34.796Z,28.30
2018-06-29T16:10:07.213Z,28.30
2018-06-29T16:12:39.897Z,28.30
2018-06-29T16:15:12.642Z,28.30
2018-06-29T16:17:45.315Z,28.40
2018-06-29T16:20:17.713Z,28.40
2018-06-29T16:22:50.109Z,28.40
2018-06-29T16:25:22.500Z,28.30
2018-06-29T16:27:54.906Z,28.30
2018-06-29T16:30:27.304Z,28.40
2018-06-29T16:32:59.956Z,28.40
2018-06-29T16:35:32.356Z,28.40
2018-06-29T16:38:05.262Z,28.40
2018-06-29T16:40:37.649Z,28.30
2018-06-29T16:43:10.297Z,28.30
2018-06-29T16:45:42.932Z,28.30
2018-06-29T16:48:15.350Z,28.30
2018-06-29T16:50:47.760Z,28.30
2018-06-29T16:53:20.133Z,28.20
2018-06-29T16:55:52.571Z,28.20
2018-06-29T16:58:25.096Z,28.10
2018-06-29T17:00:57.621Z,28.10
2018-06-29T17:03:30.034Z,28.10
2018-06-29T17:06:02.430Z,28.10
2018-06-29T17:08:34.829Z,28.00
2018-06-29T17:11:07.490Z,28.00
2018-06-29T17:13:39.897Z,28.00
2018-06-29T17:16:12.302Z,28.00
2018-06-29T17:18:44.764Z,28.10
2018-06-29T17:21:17.106Z,28.00
2018-06-29T17:23:49.511Z,28.00
2018-06-29T17:26:21.914Z,28.00
2018-06-29T17:28:54.483Z,27.90
2018-06-29T17:31:26.818Z,27.90
2018-06-29T17:34:00.047Z,27.90
2018-06-29T17:36:32.353Z,27.90
2018-06-29T17:39:07.352Z,27.80
2018-06-29T17:41:40.073Z,27.80
2018-06-29T17:44:12.470Z,27.70
2018-06-29T17:46:44.866Z,27.70
2018-06-29T17:49:17.291Z,27.70
2018-06-29T17:51:49.677Z,27.70
2018-06-29T17:54:22.126Z,27.70
2018-06-29T17:56:54.519Z,27.70
2018-06-29T17:59:27.182Z,27.60
2018-06-29T18:01:59.561Z,27.60
2018-06-29T18:04:31.965Z,27.60
2018-06-29T18:07:04.446Z,27.60
2018-06-29T18:09:36.809Z,27.60
2018-06-29T18:12:09.210Z,27.60
2018-06-29T18:14:41.928Z,27.60
2018-06-29T18:17:14.618Z,27.50
2018-06-29T18:19:47.076Z,27.40
2018-06-29T18:22:19.466Z,27.40
2018-06-29T18:24:51.885Z,27.30
2018-06-29T18:27:24.627Z,27.30
2018-06-29T18:29:57.265Z,27.30
2018-06-29T18:32:29.745Z,27.30
2018-06-29T18:35:02.414Z,27.20
2018-06-29T18:37:35.114Z,27.20
2018-06-29T18:40:07.514Z,27.20
2018-06-29T18:42:39.910Z,27.10
2018-06-29T18:45:12.305Z,27.10
2018-06-29T18:47:44.954Z,27.10
2018-06-29T18:50:17.689Z,27.00
2018-06-29T18:52:50.578Z,27.00
2018-06-29T18:55:22.970Z,26.90
2018-06-29T18:57:56.706Z,26.90
2018-06-29T19:00:31.338Z,26.80
2018-06-29T19:03:04.541Z,26.80
2018-06-29T19:05:36.945Z,26.70
2018-06-29T19:08:09.330Z,26.70
2018-06-29T19:10:41.729Z,26.70
2018-06-29T19:13:14.121Z,26.60
2018-06-29T19:15:46.505Z,26.60
2018-06-29T19:18:18.894Z,26.50
2018-06-29T19:20:51.310Z,26.50
2018-06-29T19:25:56.010Z,26.50
2018-06-29T19:28:28.961Z,26.30
2018-06-29T19:31:01.561Z,26.30
2018-06-29T19:33:34.393Z,26.20
2018-06-29T19:36:06.793Z,26.10
2018-06-29T19:38:39.261Z,26.00
2018-06-29T19:41:12.073Z,25.90
2018-06-29T19:43:44.461Z,25.90
2018-06-29T19:46:16.965Z,25.80
2018-06-29T19:48:49.395Z,25.80
2018-06-29T19:51:22.006Z,25.70
2018-06-29T19:53:54.701Z,25.60
2018-06-29T19:56:27.650Z,25.50
2018-06-29T19:59:00.057Z,25.50
2018-06-29T20:01:32.437Z,25.40
2018-06-29T20:04:05.065Z,25.40
2018-06-29T20:06:37.465Z,25.40
2018-06-29T20:09:09.858Z,25.30
2018-06-29T20:11:42.269Z,25.20
2018-06-29T20:14:14.666Z,25.20
2018-06-29T20:16:47.177Z,25.10
2018-06-29T20:19:19.604Z,25.10
2018-06-29T20:21:52.017Z,25.00
2018-06-29T20:24:24.439Z,24.90
2018-06-29T20:26:56.891Z,24.90
2018-06-29T20:29:29.234Z,24.90
2018-06-29T20:32:01.878Z,24.80
2018-06-29T20:34:34.266Z,24.80
2018-06-29T20:37:06.662Z,24.80
2018-06-29T20:39:39.602Z,24.70
2018-06-29T20:42:11.997Z,24.70
2018-06-29T20:44:44.369Z,24.60
2018-06-29T20:47:17.003Z,24.60
